createdAt,value
2018-07-31T00:01:17.493Z,100350.55
2018-07-31T00:03:46.346Z,100346.25
2018-07-31T00:06:19.367Z,100346.13
2018-07-31T00:08:48.519Z,100345.31
2018-07-31T00:11:17.068Z,100350.91
2018-07-31T00:13:45.628Z,100345.58
2018-07-31T00:16:16.690Z,100344.20
2018-07-31T00:18:46.443Z,100346.09
2018-07-31T00:21:15.028Z,100344.50
2018-07-31T00:23:47.715Z,100348.22
2018-07-31T00:26:16.313Z,100342.00
2018-07-31T00:28:44.952Z,100346.18
2018-07-31T00:31:14.097Z,100339.41
2018-07-31T00:33:42.639Z,100333.80
2018-07-31T00:36:17.661Z,100330.25
2018-07-31T00:38:47.591Z,100335.41
2018-07-31T00:41:16.155Z,100333.64
2018-07-31T00:43:44.792Z,100336.64
2018-07-31T00:46:14.674Z,100327.27
2018-07-31T00:48:43.194Z,100329.56
2018-07-31T00:51:12.011Z,100329.64
2018-07-31T00:53:53.609Z,100333.39
2018-07-31T00:56:23.891Z,100326.52
2018-07-31T00:58:52.493Z,100333.56
2018-07-31T01:01:26.420Z,100330.64
2018-07-31T01:03:55.431Z,100335.44
2018-07-31T01:06:31.604Z,100339.11
2018-07-31T01:11:40.469Z,100335.25
2018-07-31T01:14:09.926Z,100333.31
2018-07-31T01:16:40.048Z,100330.67
2018-07-31T01:19:09.428Z,100332.39
2018-07-31T01:21:38.082Z,100330.54
2018-07-31T01:24:07.085Z,100332.33
2018-07-31T01:26:46.711Z,100329.50
2018-07-31T01:29:15.317Z,100334.75
2018-07-31T01:31:47.865Z,100325.44
2018-07-31T01:34:16.455Z,100331.63
2018-07-31T01:36:45.099Z,100328.69
2018-07-31T01:39:13.925Z,100325.45
2018-07-31T01:41:53.698Z,100327.34
2018-07-31T01:44:22.206Z,100324.80
2018-07-31T01:46:52.787Z,100322.64
2018-07-31T01:49:21.380Z,100322.81
2018-07-31T01:51:53.828Z,100332.91
2018-07-31T01:54:22.397Z,100327.44
2018-07-31T01:56:50.987Z,100321.59
2018-07-31T01:59:19.641Z,100331.11
2018-07-31T02:01:49.559Z,100324.73
2018-07-31T02:04:18.648Z,100328.72
2018-07-31T02:06:49.166Z,100324.13
2018-07-31T02:09:17.735Z,100324.75
2018-07-31T02:11:46.628Z,100325.34
2018-07-31T02:14:15.522Z,100328.61
2018-07-31T02:16:44.233Z,100326.92
2018-07-31T02:19:13.098Z,100327.33
2018-07-31T02:21:41.687Z,100326.03
2018-07-31T02:24:10.294Z,100324.55
2018-07-31T02:29:12.147Z,100317.58
2018-07-31T02:31:44.791Z,100318.67
2018-07-31T02:34:13.619Z,100318.70
2018-07-31T02:36:42.231Z,100325.30
2018-07-31T02:39:10.815Z,100325.66
2018-07-31T02:41:39.767Z,100322.97
2018-07-31T02:44:08.674Z,100324.06
2018-07-31T02:46:37.291Z,100325.83
2018-07-31T02:49:07.950Z,100327.17
2018-07-31T02:51:36.458Z,100322.48
2018-07-31T02:54:08.419Z,100328.57
2018-07-31T02:56:37.253Z,100320.53
2018-07-31T02:59:05.911Z,100324.29
2018-07-31T03:01:34.545Z,100321.64
2018-07-31T03:04:04.056Z,100321.00
2018-07-31T03:06:32.675Z,100325.23
2018-07-31T03:09:01.313Z,100324.94
2018-07-31T03:11:35.956Z,100323.98
2018-07-31T03:14:05.387Z,100323.33
2018-07-31T03:16:37.500Z,100323.73
2018-07-31T03:19:06.441Z,100333.02
2018-07-31T03:21:40.762Z,100322.94
2018-07-31T03:24:09.403Z,100330.33
2018-07-31T03:26:42.138Z,100331.55
2018-07-31T03:29:11.772Z,100326.12
2018-07-31T03:31:46.367Z,100328.77
2018-07-31T03:34:21.541Z,100331.42
2018-07-31T03:36:50.612Z,100337.77
2018-07-31T03:39:23.811Z,100331.68
2018-07-31T03:41:52.772Z,100326.44
2018-07-31T03:44:21.421Z,100328.13
2018-07-31T03:46:50.043Z,100325.59
2018-07-31T03:49:18.679Z,100331.17
2018-07-31T03:51:47.449Z,100330.58
2018-07-31T03:54:16.171Z,100328.33
2018-07-31T03:56:45.115Z,100330.58
2018-07-31T03:59:13.701Z,100335.01
2018-07-31T04:01:42.264Z,100336.09
2018-07-31T04:04:11.292Z,100339.83
2018-07-31T04:06:40.004Z,100336.83
2018-07-31T04:09:10.691Z,100338.02
2018-07-31T04:11:39.576Z,100343.71
2018-07-31T04:14:08.179Z,100339.13
2018-07-31T04:16:36.768Z,100344.67
2018-07-31T04:19:05.908Z,100342.82
2018-07-31T04:21:34.490Z,100352.79
2018-07-31T04:24:04.652Z,100351.48
2018-07-31T04:26:33.464Z,100354.37
2018-07-31T04:29:07.051Z,100357.06
2018-07-31T04:31:35.659Z,100361.38
2018-07-31T04:34:07.631Z,100356.98
2018-07-31T04:36:36.264Z,100359.02
2018-07-31T04:39:07.946Z,100354.59
2018-07-31T04:41:36.852Z,100355.21
2018-07-31T04:44:05.647Z,100353.17
2018-07-31T04:46:34.227Z,100355.28
2018-07-31T04:49:03.253Z,100365.69
2018-07-31T04:51:31.929Z,100359.96
2018-07-31T04:54:00.954Z,100371.08
2018-07-31T04:56:29.894Z,100365.35
2018-07-31T04:59:05.771Z,100365.50
2018-07-31T05:01:34.333Z,100366.45
2018-07-31T05:04:04.131Z,100364.36
2018-07-31T05:06:32.742Z,100366.55
2018-07-31T05:09:01.396Z,100362.13
2018-07-31T05:11:30.337Z,100364.56
2018-07-31T05:13:59.048Z,100365.02
2018-07-31T05:16:27.647Z,100369.70
2018-07-31T05:18:56.636Z,100370.36
2018-07-31T05:21:25.463Z,100375.36
2018-07-31T05:23:54.127Z,100374.55
2018-07-31T05:26:23.442Z,100378.06
2018-07-31T05:28:52.328Z,100387.09
2018-07-31T05:31:26.498Z,100388.89
2018-07-31T05:33:55.781Z,100389.03
2018-07-31T05:36:24.574Z,100388.33
2018-07-31T05:38:53.609Z,100387.62
2018-07-31T05:41:27.493Z,100391.11
2018-07-31T05:43:56.311Z,100390.91
2018-07-31T05:46:25.373Z,100392.34
2018-07-31T05:48:55.242Z,100394.55
2018-07-31T05:51:24.169Z,100391.25
2018-07-31T05:53:53.209Z,100391.25
2018-07-31T05:56:23.270Z,100390.80
2018-07-31T05:58:52.149Z,100401.12
2018-07-31T06:01:21.041Z,100396.17
2018-07-31T06:03:53.495Z,100402.20
2018-07-31T06:06:22.400Z,100400.91
2018-07-31T06:09:02.090Z,100404.11
2018-07-31T06:11:33.822Z,100401.56
2018-07-31T06:14:04.524Z,100408.51
2018-07-31T06:16:39.632Z,100411.19
2018-07-31T06:19:10.339Z,100407.38
2018-07-31T06:21:39.988Z,100412.27
2018-07-31T06:24:10.413Z,100417.07
2018-07-31T06:26:42.623Z,100417.82
2018-07-31T06:29:17.840Z,100424.36
2018-07-31T06:31:46.787Z,100423.34
2018-07-31T06:34:15.607Z,100424.36
2018-07-31T06:36:44.422Z,100430.72
2018-07-31T06:39:13.878Z,100427.86
2018-07-31T06:41:57.230Z,100430.86
2018-07-31T06:44:26.710Z,100431.41
2018-07-31T06:46:55.500Z,100435.45
2018-07-31T06:49:29.003Z,100432.30
2018-07-31T06:52:04.082Z,100434.04
2018-07-31T06:54:40.090Z,100430.47
2018-07-31T06:57:12.247Z,100441.77
2018-07-31T06:59:42.467Z,100438.67
2018-07-31T07:02:11.390Z,100442.13
2018-07-31T07:04:53.854Z,100435.73
2018-07-31T07:07:22.715Z,100432.92
2018-07-31T07:09:52.591Z,100442.03
2018-07-31T07:12:21.390Z,100439.89
2018-07-31T07:14:54.474Z,100442.61
2018-07-31T07:17:23.845Z,100444.97
2018-07-31T07:19:52.871Z,100441.98
2018-07-31T07:24:56.191Z,100445.06
2018-07-31T07:27:27.974Z,100448.00
2018-07-31T07:29:57.009Z,100442.11
2018-07-31T07:32:28.573Z,100441.67
2018-07-31T07:35:03.025Z,100439.12
2018-07-31T07:37:31.779Z,100440.53
2018-07-31T07:40:03.152Z,100446.33
2018-07-31T07:42:32.213Z,100447.42
2018-07-31T07:45:01.345Z,100446.50
2018-07-31T07:47:30.016Z,100448.77
2018-07-31T07:49:58.823Z,100446.50
2018-07-31T07:52:29.456Z,100453.73
2018-07-31T07:55:01.211Z,100445.92
2018-07-31T07:57:30.372Z,100448.62
2018-07-31T07:59:59.460Z,100452.51
2018-07-31T08:02:28.258Z,100446.31
2018-07-31T08:05:00.622Z,100449.27
2018-07-31T08:07:30.030Z,100453.00
2018-07-31T08:09:58.855Z,100448.98
2018-07-31T08:12:27.671Z,100456.38
2018-07-31T08:14:57.811Z,100453.90
2018-07-31T08:17:26.749Z,100457.80
2018-07-31T08:19:57.704Z,100460.97
2018-07-31T08:22:26.889Z,100461.73
2018-07-31T08:24:55.898Z,100455.80
2018-07-31T08:27:24.765Z,100461.55
2018-07-31T08:30:00.873Z,100463.88
2018-07-31T08:32:30.064Z,100468.27
2018-07-31T08:34:59.028Z,100472.77
2018-07-31T08:37:27.808Z,100466.67
2018-07-31T08:39:56.579Z,100466.28
2018-07-31T08:42:25.799Z,100467.87
2018-07-31T08:44:55.375Z,100465.20
2018-07-31T08:47:30.976Z,100471.16
2018-07-31T08:50:03.746Z,100471.41
2018-07-31T08:52:32.610Z,100463.41
2018-07-31T08:55:04.758Z,100465.20
2018-07-31T08:57:34.979Z,100464.30
2018-07-31T09:00:06.402Z,100468.48
2018-07-31T09:02:35.993Z,100467.84
2018-07-31T09:05:05.648Z,100462.69
2018-07-31T09:07:34.578Z,100466.66
2018-07-31T09:10:04.718Z,100468.84
2018-07-31T09:12:33.959Z,100472.29
2018-07-31T09:15:06.681Z,100462.91
2018-07-31T09:17:35.627Z,100468.68
2018-07-31T09:20:08.009Z,100472.43
2018-07-31T09:22:36.853Z,100477.02
2018-07-31T09:25:06.047Z,100472.13
2018-07-31T09:27:40.863Z,100471.48
2018-07-31T09:32:50.709Z,100472.36
2018-07-31T09:35:19.743Z,100469.05
2018-07-31T09:37:57.183Z,100467.47
2018-07-31T09:40:26.056Z,100469.15
2018-07-31T09:42:54.920Z,100473.42
2018-07-31T09:45:23.863Z,100471.20
2018-07-31T09:47:56.677Z,100471.29
2018-07-31T09:50:25.605Z,100469.74
2018-07-31T09:53:08.484Z,100473.41
2018-07-31T09:55:51.372Z,100465.48
2018-07-31T09:58:20.444Z,100464.06
2018-07-31T10:00:59.228Z,100465.25
2018-07-31T10:03:28.377Z,100469.06
2018-07-31T10:05:57.547Z,100466.59
2018-07-31T10:08:26.424Z,100462.28
2018-07-31T10:10:55.792Z,100459.97
2018-07-31T10:13:29.007Z,100462.12
2018-07-31T10:15:57.948Z,100457.16
2018-07-31T10:18:26.872Z,100464.48
2018-07-31T10:20:56.006Z,100456.30
2018-07-31T10:23:28.201Z,100453.87
2018-07-31T10:25:57.430Z,100453.50
2018-07-31T10:28:26.583Z,100455.30
2018-07-31T10:30:57.665Z,100449.16
2018-07-31T10:33:26.561Z,100452.98
2018-07-31T10:35:56.513Z,100449.98
2018-07-31T10:38:25.402Z,100449.19
2018-07-31T10:40:57.727Z,100446.77
2018-07-31T10:43:26.517Z,100443.59
2018-07-31T10:45:57.032Z,100442.58
2018-07-31T10:48:26.151Z,100439.53
2018-07-31T10:50:55.007Z,100445.36
2018-07-31T10:53:24.027Z,100443.47
2018-07-31T10:55:53.134Z,100439.53
2018-07-31T10:58:24.917Z,100441.47
2018-07-31T11:00:53.803Z,100437.63
2018-07-31T11:03:23.047Z,100440.63
2018-07-31T11:05:52.107Z,100438.80
2018-07-31T11:08:20.948Z,100440.56
2018-07-31T11:10:50.856Z,100438.30
2018-07-31T11:13:19.823Z,100442.73
2018-07-31T11:18:28.743Z,100436.34
2018-07-31T11:20:59.455Z,100437.08
2018-07-31T11:23:28.444Z,100433.06
2018-07-31T11:25:57.763Z,100429.51
2018-07-31T11:28:27.820Z,100427.70
2018-07-31T11:30:56.523Z,100425.28
2018-07-31T11:33:26.795Z,100425.56
2018-07-31T11:35:56.280Z,100427.33
2018-07-31T11:38:25.125Z,100424.41
2018-07-31T11:40:54.296Z,100416.19
2018-07-31T11:43:25.555Z,100419.84
2018-07-31T11:45:54.460Z,100413.02
2018-07-31T11:48:24.215Z,100412.50
2018-07-31T11:50:53.117Z,100414.41
2018-07-31T11:53:25.105Z,100409.75
2018-07-31T11:55:54.550Z,100421.45
2018-07-31T11:58:24.145Z,100405.54
2018-07-31T12:00:53.080Z,100407.42
2018-07-31T12:03:22.416Z,100409.19
2018-07-31T12:05:51.452Z,100398.23
2018-07-31T12:08:20.280Z,100396.66
2018-07-31T12:10:50.481Z,100402.74
2018-07-31T12:13:19.358Z,100403.53
2018-07-31T12:15:48.281Z,100407.68
2018-07-31T12:18:19.718Z,100400.19
2018-07-31T12:20:50.544Z,100398.62
2018-07-31T12:23:19.404Z,100401.27
2018-07-31T12:25:53.479Z,100391.69
2018-07-31T12:28:22.399Z,100398.00
2018-07-31T12:30:51.231Z,100399.64
2018-07-31T12:33:26.350Z,100402.58
2018-07-31T12:35:59.682Z,100394.98
2018-07-31T12:38:33.480Z,100392.06
2018-07-31T12:41:02.435Z,100389.57
2018-07-31T12:43:31.277Z,100396.65
2018-07-31T12:46:00.673Z,100393.63
2018-07-31T12:48:29.481Z,100386.30
2018-07-31T12:50:58.412Z,100386.27
2018-07-31T12:53:27.752Z,100383.27
2018-07-31T12:55:57.474Z,100382.38
2018-07-31T12:58:26.443Z,100380.38
2018-07-31T13:01:29.176Z,100378.95
2018-07-31T13:04:01.002Z,100381.80
2018-07-31T13:06:30.205Z,100389.05
2018-07-31T13:08:59.011Z,100374.07
2018-07-31T13:11:29.106Z,100382.32
2018-07-31T13:13:58.387Z,100373.52
2018-07-31T13:16:33.106Z,100373.53
2018-07-31T13:19:03.397Z,100376.16
2018-07-31T13:21:32.361Z,100378.77
2018-07-31T13:24:03.129Z,100377.23
2018-07-31T13:26:32.449Z,100376.09
2018-07-31T13:29:02.260Z,100370.70
2018-07-31T13:31:32.054Z,100364.75
2018-07-31T13:34:02.441Z,100357.75
2018-07-31T13:36:31.633Z,100361.39
2018-07-31T13:39:00.500Z,100369.56
2018-07-31T13:41:29.886Z,100364.78
2018-07-31T13:43:58.874Z,100354.29
2018-07-31T13:46:37.336Z,100362.45
2018-07-31T13:49:06.388Z,100355.37
2018-07-31T13:51:35.292Z,100360.28
2018-07-31T13:54:15.967Z,100359.57
2018-07-31T13:56:45.208Z,100369.31
2018-07-31T13:59:15.020Z,100361.49
2018-07-31T14:01:44.087Z,100367.21
2018-07-31T14:04:14.008Z,100357.55
2018-07-31T14:06:43.118Z,100354.58
2018-07-31T14:09:56.900Z,100354.16
2018-07-31T14:12:26.352Z,100359.09
2018-07-31T14:14:55.370Z,100348.25
2018-07-31T14:17:24.192Z,100347.30
2018-07-31T14:19:53.296Z,100354.97
2018-07-31T14:22:22.174Z,100354.55
2018-07-31T14:24:50.965Z,100349.50
2018-07-31T14:27:20.186Z,100345.70
2018-07-31T14:29:49.615Z,100345.09
2018-07-31T14:32:18.568Z,100351.75
2018-07-31T14:34:47.671Z,100346.02
2018-07-31T14:37:16.425Z,100347.70
2018-07-31T14:39:45.140Z,100337.94
2018-07-31T14:42:20.808Z,100337.32
2018-07-31T14:44:49.661Z,100348.79
2018-07-31T14:47:21.926Z,100335.13
2018-07-31T14:49:51.131Z,100339.00
2018-07-31T14:52:25.714Z,100332.09
2018-07-31T14:54:54.749Z,100340.49
2018-07-31T14:57:23.787Z,100341.91
2018-07-31T15:00:14.283Z,100337.97
2018-07-31T15:02:45.093Z,100336.25
2018-07-31T15:05:17.567Z,100339.58
2018-07-31T15:07:48.177Z,100342.27
2018-07-31T15:10:18.143Z,100346.46
2018-07-31T15:12:47.006Z,100343.66
2018-07-31T15:15:17.366Z,100345.16
2018-07-31T15:17:52.098Z,100338.66
2018-07-31T15:20:22.108Z,100344.91
2018-07-31T15:22:53.995Z,100346.63
2018-07-31T15:25:29.805Z,100338.38
2018-07-31T15:28:00.521Z,100342.13
2018-07-31T15:30:34.463Z,100343.48
2018-07-31T15:33:05.752Z,100345.48
2018-07-31T15:35:39.084Z,100340.41
2018-07-31T15:38:10.873Z,100343.38
2018-07-31T15:40:42.047Z,100338.39
2018-07-31T15:43:11.975Z,100340.08
2018-07-31T15:45:58.203Z,100334.61
2018-07-31T15:48:29.316Z,100338.39
2018-07-31T15:51:02.966Z,100343.08
2018-07-31T15:53:35.119Z,100342.84
2018-07-31T15:59:05.907Z,100339.37
2018-07-31T16:01:37.282Z,100335.36
2018-07-31T16:04:06.700Z,100341.87
2018-07-31T16:06:36.643Z,100339.58
2018-07-31T16:09:11.161Z,100337.16
2018-07-31T16:11:42.577Z,100332.87
2018-07-31T16:14:18.545Z,100342.03
2018-07-31T16:16:52.956Z,100335.85
2018-07-31T16:19:21.963Z,100337.39
2018-07-31T16:24:25.510Z,100330.66
2018-07-31T16:26:57.945Z,100330.58
2018-07-31T16:29:27.097Z,100332.97
2018-07-31T16:31:55.956Z,100337.70
2018-07-31T16:34:25.200Z,100333.26
2018-07-31T16:36:54.240Z,100329.55
2018-07-31T16:39:23.133Z,100331.67
2018-07-31T16:41:53.992Z,100338.97
2018-07-31T16:44:23.234Z,100339.45
2018-07-31T16:46:52.205Z,100339.42
2018-07-31T16:49:22.221Z,100330.95
2018-07-31T16:51:51.769Z,100339.97
2018-07-31T16:54:20.650Z,100340.27
2018-07-31T16:56:52.993Z,100340.02
2018-07-31T16:59:22.065Z,100340.55
2018-07-31T17:01:51.375Z,100339.63
2018-07-31T17:04:20.650Z,100344.48
2018-07-31T17:06:49.998Z,100349.08
2018-07-31T17:09:28.401Z,100351.14
2018-07-31T17:12:19.573Z,100352.32
2018-07-31T17:15:13.259Z,100344.30
2018-07-31T17:17:42.564Z,100345.69
2018-07-31T17:20:11.569Z,100348.19
2018-07-31T17:22:40.613Z,100350.41
2018-07-31T17:25:13.298Z,100354.80
2018-07-31T17:28:03.434Z,100355.08
2018-07-31T17:30:35.993Z,100354.52
2018-07-31T17:33:05.024Z,100359.45
2018-07-31T17:35:34.094Z,100361.63
2018-07-31T17:38:19.801Z,100361.55
2018-07-31T17:41:09.243Z,100362.58
2018-07-31T17:43:38.526Z,100359.74
2018-07-31T17:46:09.659Z,100372.20
2018-07-31T17:48:38.498Z,100374.38
2018-07-31T17:51:09.568Z,100380.03
2018-07-31T17:53:38.442Z,100378.48
2018-07-31T17:56:07.377Z,100381.83
2018-07-31T17:58:36.631Z,100380.35
2018-07-31T18:01:10.680Z,100385.69
2018-07-31T18:03:39.592Z,100384.67
2018-07-31T18:06:12.543Z,100389.57
2018-07-31T18:08:41.539Z,100388.97
2018-07-31T18:11:10.846Z,100388.08
2018-07-31T18:13:43.583Z,100393.67
2018-07-31T18:16:12.877Z,100394.81
2018-07-31T18:18:42.892Z,100397.01
2018-07-31T18:21:11.795Z,100403.72
2018-07-31T18:23:40.886Z,100402.31
2018-07-31T18:26:10.058Z,100405.97
2018-07-31T18:28:38.940Z,100407.20
2018-07-31T18:31:08.050Z,100406.15
2018-07-31T18:33:37.376Z,100415.16
2018-07-31T18:36:07.028Z,100414.11
2018-07-31T18:38:35.949Z,100414.17
2018-07-31T18:41:05.227Z,100418.05
2018-07-31T18:43:33.909Z,100417.02
2018-07-31T18:46:04.114Z,100425.66
2018-07-31T18:48:33.295Z,100425.41
2018-07-31T18:51:13.189Z,100429.52
2018-07-31T18:53:42.213Z,100422.21
2018-07-31T18:56:11.876Z,100433.83
2018-07-31T18:58:40.735Z,100433.73
2018-07-31T19:01:10.025Z,100434.08
2018-07-31T19:03:38.864Z,100436.72
2018-07-31T19:06:07.841Z,100438.09
2018-07-31T19:08:37.060Z,100441.02
2018-07-31T19:11:05.925Z,100453.11
2018-07-31T19:13:35.025Z,100454.48
2018-07-31T19:16:05.887Z,100459.47
2018-07-31T19:18:38.771Z,100463.07
2018-07-31T19:21:07.557Z,100468.15
2018-07-31T19:23:36.404Z,100461.09
2018-07-31T19:26:05.930Z,100468.00
2018-07-31T19:28:35.133Z,100466.76
2018-07-31T19:31:06.957Z,100473.58
2018-07-31T19:33:35.725Z,100471.89
2018-07-31T19:36:05.798Z,100469.64
2018-07-31T19:38:34.694Z,100478.41
2018-07-31T19:41:04.158Z,100473.17
2018-07-31T19:43:33.135Z,100480.52
2018-07-31T19:46:08.624Z,100475.98
2018-07-31T19:48:38.750Z,100474.02
2018-07-31T19:51:07.784Z,100483.39
2018-07-31T19:53:37.537Z,100487.09
2018-07-31T19:56:06.757Z,100485.50
2018-07-31T19:58:35.693Z,100487.53
2018-07-31T20:01:10.561Z,100487.92
2018-07-31T20:03:40.321Z,100492.55
2018-07-31T20:06:12.162Z,100492.49
2018-07-31T20:08:41.033Z,100493.73
2018-07-31T20:11:10.322Z,100495.70
2018-07-31T20:13:39.151Z,100504.80
2018-07-31T20:16:08.145Z,100503.18
2018-07-31T20:18:37.269Z,100506.45
2018-07-31T20:21:09.253Z,100511.94
2018-07-31T20:23:38.386Z,100507.67
2018-07-31T20:26:08.508Z,100504.40
2018-07-31T20:28:42.810Z,100516.70
2018-07-31T20:31:12.209Z,100515.66
2018-07-31T20:33:41.496Z,100517.91
2018-07-31T20:36:10.477Z,100515.47
2018-07-31T20:38:39.317Z,100526.65
2018-07-31T20:41:08.430Z,100524.39
2018-07-31T20:43:38.304Z,100530.64
2018-07-31T20:46:13.443Z,100528.28
2018-07-31T20:48:42.829Z,100524.76
2018-07-31T20:51:11.717Z,100527.25
2018-07-31T20:53:40.435Z,100531.23
2018-07-31T20:56:15.760Z,100534.55
2018-07-31T20:58:44.642Z,100532.66
2018-07-31T21:01:13.742Z,100536.23
2018-07-31T21:03:45.141Z,100530.24
2018-07-31T21:06:16.262Z,100536.97
2018-07-31T21:08:45.096Z,100535.91
2018-07-31T21:11:18.989Z,100540.83
2018-07-31T21:13:52.674Z,100538.55
2018-07-31T21:16:21.816Z,100537.32
2018-07-31T21:18:50.795Z,100539.55
2018-07-31T21:21:20.849Z,100542.04
2018-07-31T21:23:49.942Z,100543.89
2018-07-31T21:26:18.947Z,100547.54
2018-07-31T21:28:48.624Z,100548.11
2018-07-31T21:31:21.161Z,100547.90
2018-07-31T21:33:50.581Z,100550.84
2018-07-31T21:36:19.644Z,100555.41
2018-07-31T21:38:48.908Z,100560.33
2018-07-31T21:41:17.788Z,100559.20
2018-07-31T21:46:22.136Z,100565.05
2018-07-31T21:48:50.893Z,100559.63
2018-07-31T21:51:19.649Z,100561.20
2018-07-31T21:53:48.756Z,100571.66
2018-07-31T21:56:18.483Z,100565.72
2018-07-31T21:58:47.334Z,100567.70
2018-07-31T22:03:42.801Z,100574.38
2018-07-31T22:06:11.868Z,100581.59
2018-07-31T22:08:41.121Z,100577.78
2018-07-31T22:11:10.223Z,100582.70
2018-07-31T22:13:38.970Z,100582.08
2018-07-31T22:16:08.071Z,100586.88
2018-07-31T22:18:36.800Z,100589.69
2018-07-31T22:21:08.356Z,100601.80
2018-07-31T22:23:37.537Z,100599.48
2018-07-31T22:26:06.823Z,100603.22
2018-07-31T22:28:36.441Z,100612.98
2018-07-31T22:31:08.064Z,100615.69
2018-07-31T22:33:36.815Z,100616.27
2018-07-31T22:36:09.525Z,100618.45
2018-07-31T22:38:38.211Z,100619.07
2018-07-31T22:41:07.001Z,100619.61
2018-07-31T22:43:37.616Z,100626.58
2018-07-31T22:46:06.298Z,100625.22
2018-07-31T22:48:35.686Z,100629.20
2018-07-31T22:51:04.746Z,100628.84
2018-07-31T22:53:34.058Z,100632.42
2018-07-31T22:56:14.574Z,100629.76
2018-07-31T22:58:43.777Z,100628.48
2018-07-31T23:01:13.085Z,100629.64
2018-07-31T23:03:41.754Z,100628.61
2018-07-31T23:06:10.411Z,100628.02
2018-07-31T23:08:39.146Z,100636.36
2018-07-31T23:11:08.153Z,100638.52
2018-07-31T23:13:39.056Z,100636.45
2018-07-31T23:16:07.840Z,100632.81
2018-07-31T23:18:36.933Z,100631.34
2018-07-31T23:21:08.860Z,100630.36
2018-07-31T23:23:37.694Z,100636.28
2018-07-31T23:26:07.112Z,100633.78
2018-07-31T23:28:41.854Z,100629.69
2018-07-31T23:31:10.741Z,100629.02
2018-07-31T23:33:39.398Z,100627.61
2018-07-31T23:36:08.735Z,100633.70
2018-07-31T23:38:37.474Z,100633.70
2018-07-31T23:41:07.492Z,100630.83
2018-07-31T23:43:40.084Z,100625.81
2018-07-31T23:46:09.043Z,100622.58
2018-07-31T23:48:38.160Z,100621.91
2018-07-31T23:51:11.660Z,100613.78
2018-07-31T23:53:40.654Z,100616.23
2018-07-31T23:56:09.693Z,100618.64
2018-07-31T23:58:38.403Z,100616.40
